Time;durP1;ratioP1;P1;durP2;ratioP2;P2;SDS_P1;SDS_P2;PMS_P1;PMS_P2;Temp;Humidity;BMP_temperature;BMP_pressure;BME280_temperature;BME280_humidity;BME280_pressure;Samples;Min_cycle;Max_cycle;Signal;HPM_P1;HPM_P2
2023/05/26 00:00:48;;;;;;;27.13;7.80;;;11.60;99.90;;;;;;4957495;28;20247;-59
2023/05/26 00:03:17;;;;;;;29.93;7.80;;;11.60;99.90;;;;;;4957583;28;20207;-59
2023/05/26 00:05:45;;;;;;;30.17;7.00;;;11.60;99.90;;;;;;4957164;28;20227;-59
2023/05/26 00:08:14;;;;;;;24.03;7.33;;;11.60;99.90;;;;;;4957287;28;20225;-59
2023/05/26 00:10:44;;;;;;;26.00;7.23;;;11.50;99.90;;;;;;4949430;28;20233;-59
2023/05/26 00:13:12;;;;;;;30.03;7.43;;;11.50;99.90;;;;;;4943031;28;20247;-59
2023/05/26 00:15:41;;;;;;;26.63;7.50;;;11.50;99.90;;;;;;4957143;28;20304;-59
2023/05/26 00:18:09;;;;;;;23.17;6.87;;;11.40;99.90;;;;;;4957525;28;20595;-59
2023/05/26 00:20:37;;;;;;;26.53;8.30;;;11.40;99.90;;;;;;4956980;28;20307;-59
2023/05/26 00:23:06;;;;;;;28.70;7.40;;;11.40;99.90;;;;;;4956596;28;20215;-59
2023/05/26 00:25:34;;;;;;;31.57;7.70;;;11.30;99.90;;;;;;4957183;28;20311;-59
2023/05/26 00:28:04;;;;;;;27.13;6.80;;;11.30;99.90;;;;;;4957659;28;20243;-59
2023/05/26 00:30:32;;;;;;;26.13;7.43;;;11.30;99.90;;;;;;4957780;28;20307;-59
2023/05/26 00:33:01;;;;;;;28.93;7.43;;;11.30;99.90;;;;;;4957310;28;20206;-59
2023/05/26 00:35:29;;;;;;;31.73;7.60;;;11.30;99.90;;;;;;4956566;28;20227;-60
2023/05/26 00:37:57;;;;;;;33.53;8.13;;;11.20;99.90;;;;;;4957000;28;20228;-59
2023/05/26 00:40:26;;;;;;;26.57;7.67;;;11.20;99.90;;;;;;4956878;28;20231;-59
2023/05/26 00:42:54;;;;;;;29.30;7.17;;;11.20;99.90;;;;;;4937903;28;20679;-59
2023/05/26 00:45:24;;;;;;;38.30;8.30;;;11.20;99.90;;;;;;4954884;29;20196;-59
2023/05/26 00:47:52;;;;;;;37.47;8.23;;;11.20;99.90;;;;;;4961735;28;20563;-59
2023/05/26 00:50:23;;;;;;;31.13;8.00;;;11.20;99.90;;;;;;4957106;28;20236;-59
2023/05/26 00:52:52;;;;;;;26.93;7.40;;;11.10;99.90;;;;;;4951033;28;20649;-59
2023/05/26 00:55:23;;;;;;;28.37;7.63;;;11.00;99.90;;;;;;4954109;28;20226;-59
2023/05/26 00:57:51;;;;;;;25.17;7.10;;;11.00;99.90;;;;;;4956519;28;20230;-59
2023/05/26 01:00:20;;;;;;;25.70;7.50;;;11.00;99.90;;;;;;4958129;28;20519;-59
2023/05/26 01:02:55;;;;;;;35.97;8.27;;;11.00;99.90;;;;;;4956123;28;20588;-59
2023/05/26 01:05:24;;;;;;;36.37;8.10;;;11.00;99.90;;;;;;4963225;28;20227;-59
2023/05/26 01:07:53;;;;;;;29.93;7.47;;;10.90;99.90;;;;;;4975134;28;20234;-59
2023/05/26 01:10:22;;;;;;;30.07;7.57;;;10.90;99.90;;;;;;4955679;28;20590;-59
2023/05/26 01:12:55;;;;;;;25.87;7.03;;;10.90;99.90;;;;;;4955741;28;20258;-59
2023/05/26 01:15:29;;;;;;;28.10;7.60;;;10.90;99.90;;;;;;4955716;28;20192;-59
2023/05/26 01:18:05;;;;;;;39.23;7.97;;;10.80;99.90;;;;;;4955069;29;20339;-59
2023/05/26 01:20:40;;;;;;;32.57;7.80;;;10.80;99.90;;;;;;4951233;28;20228;-59
2023/05/26 01:23:46;;;;;;;31.17;8.03;;;10.70;99.90;;;;;;4938670;28;20315;-59
2023/05/26 01:26:21;;;;;;;36.83;7.77;;;10.70;99.90;;;;;;4946656;28;20227;-59
2023/05/26 01:28:59;;;;;;;23.83;6.93;;;10.60;99.90;;;;;;4955014;28;20235;-59
2023/05/26 01:31:27;;;;;;;28.17;7.53;;;10.70;99.90;;;;;;4955104;28;20642;-59
2023/05/26 01:33:55;;;;;;;25.67;7.33;;;10.70;99.90;;;;;;4950840;28;20228;-59
2023/05/26 01:36:24;;;;;;;26.70;6.73;;;10.70;99.90;;;;;;4962460;28;20234;-59
2023/05/26 01:38:53;;;;;;;28.43;6.67;;;10.60;99.90;;;;;;4960406;28;20230;-59
2023/05/26 01:41:26;;;;;;;28.50;7.83;;;10.60;99.90;;;;;;4963359;28;20220;-59
2023/05/26 01:44:02;;;;;;;25.57;7.27;;;10.60;99.90;;;;;;4966810;28;20310;-59
2023/05/26 01:46:37;;;;;;;36.07;7.13;;;10.60;99.90;;;;;;4955388;28;20219;-59
2023/05/26 01:49:08;;;;;;;29.37;7.77;;;10.50;99.90;;;;;;4955332;28;20275;-59
2023/05/26 01:51:40;;;;;;;26.63;7.73;;;10.50;99.90;;;;;;4955440;28;20208;-59
2023/05/26 01:54:09;;;;;;;32.27;8.00;;;10.50;99.90;;;;;;4955952;28;20200;-59
2023/05/26 01:56:38;;;;;;;29.27;7.47;;;10.50;99.90;;;;;;4955165;28;20290;-58
2023/05/26 01:59:09;;;;;;;28.40;7.00;;;10.40;99.90;;;;;;4955088;28;20220;-59
2023/05/26 02:01:37;;;;;;;33.40;8.13;;;10.40;99.90;;;;;;4955554;28;20223;-58
2023/05/26 02:04:06;;;;;;;29.40;7.57;;;10.40;99.90;;;;;;4955162;28;20311;-59
2023/05/26 02:06:34;;;;;;;25.60;7.17;;;10.30;99.90;;;;;;4955284;28;20271;-59
2023/05/26 02:09:03;;;;;;;36.43;7.57;;;10.30;99.90;;;;;;4955537;28;20208;-59
2023/05/26 02:11:32;;;;;;;32.30;7.70;;;10.30;99.90;;;;;;4956983;28;20567;-59
2023/05/26 02:14:00;;;;;;;33.53;7.40;;;10.30;99.90;;;;;;4955026;28;20228;-59
2023/05/26 02:16:32;;;;;;;30.60;6.77;;;10.20;99.90;;;;;;4954935;28;20235;-59
2023/05/26 02:19:01;;;;;;;31.80;6.90;;;10.30;99.90;;;;;;4954917;28;20279;-59
2023/05/26 02:21:31;;;;;;;25.80;6.93;;;10.30;99.90;;;;;;4954728;28;20742;-59
2023/05/26 02:23:59;;;;;;;31.07;7.60;;;10.30;99.90;;;;;;4956528;28;20209;-59
2023/05/26 02:26:27;;;;;;;22.10;6.77;;;10.20;99.90;;;;;;4954716;28;20745;-58
2023/05/26 02:28:56;;;;;;;31.43;7.03;;;10.20;99.90;;;;;;4954661;28;20226;-59
2023/05/26 02:31:25;;;;;;;23.77;7.23;;;10.20;99.90;;;;;;4945630;28;20228;-59
2023/05/26 02:33:54;;;;;;;26.63;6.80;;;10.10;99.90;;;;;;4952848;28;20702;-59
2023/05/26 02:36:23;;;;;;;33.57;7.57;;;10.00;99.90;;;;;;4955004;28;20595;-58
2023/05/26 02:38:51;;;;;;;35.03;7.63;;;10.10;99.90;;;;;;4954686;28;20235;-58
2023/05/26 02:41:20;;;;;;;29.90;6.80;;;10.00;99.90;;;;;;4954275;28;20599;-59
2023/05/26 02:43:48;;;;;;;26.73;7.07;;;10.00;99.90;;;;;;4954614;28;20686;-59
2023/05/26 02:46:16;;;;;;;29.23;6.63;;;9.90;99.90;;;;;;4954804;28;20242;-59
2023/05/26 02:48:45;;;;;;;28.27;7.20;;;9.90;99.90;;;;;;4954752;28;20241;-59
2023/05/26 02:51:15;;;;;;;29.60;6.63;;;9.80;99.90;;;;;;4954976;28;20212;-59
2023/05/26 02:53:44;;;;;;;23.07;7.17;;;9.80;99.90;;;;;;4954742;28;20603;-59
2023/05/26 02:56:50;;;;;;;26.33;6.57;;;9.80;99.90;;;;;;4954494;28;20238;-59
2023/05/26 02:59:18;;;;;;;20.33;6.47;;;9.80;99.90;;;;;;4954640;28;20241;-58
2023/05/26 03:01:46;;;;;;;29.13;7.27;;;9.80;99.90;;;;;;4954492;28;20230;-59
2023/05/26 03:04:15;;;;;;;33.07;7.00;;;9.70;99.90;;;;;;4954495;28;20279;-59
2023/05/26 03:06:45;;;;;;;26.00;6.60;;;9.70;99.90;;;;;;4935789;28;20215;-59
2023/05/26 03:09:13;;;;;;;29.37;7.73;;;9.70;99.90;;;;;;4949585;28;20204;-59
2023/05/26 03:11:41;;;;;;;29.13;8.10;;;9.70;99.90;;;;;;4955358;28;20493;-59
2023/05/26 03:14:10;;;;;;;33.20;7.10;;;9.60;99.90;;;;;;4954438;28;20224;-59
2023/05/26 03:16:38;;;;;;;25.77;6.60;;;9.60;99.90;;;;;;4953576;28;20243;-59
2023/05/26 03:19:06;;;;;;;31.40;7.33;;;9.60;99.90;;;;;;4953752;28;20254;-59
2023/05/26 03:21:35;;;;;;;29.43;7.73;;;9.50;99.90;;;;;;4954414;28;20188;-59
2023/05/26 03:24:16;;;;;;;32.73;7.47;;;9.50;99.90;;;;;;4953837;28;20207;-59
2023/05/26 03:26:45;;;;;;;28.30;7.27;;;9.50;99.90;;;;;;4957782;28;20322;-59
2023/05/26 03:29:13;;;;;;;28.27;7.27;;;9.50;99.90;;;;;;4954236;28;20563;-59
2023/05/26 03:31:41;;;;;;;28.80;7.07;;;9.50;99.90;;;;;;4953877;28;20216;-59
2023/05/26 03:34:10;;;;;;;30.33;6.90;;;9.50;99.90;;;;;;4953576;28;20683;-58
2023/05/26 03:36:38;;;;;;;29.47;7.27;;;9.50;99.90;;;;;;4954554;28;20232;-58
2023/05/26 03:39:07;;;;;;;32.73;7.17;;;9.50;99.90;;;;;;4973739;28;20196;-58
2023/05/26 03:41:37;;;;;;;32.20;7.30;;;9.40;99.90;;;;;;4952386;28;20564;-59
2023/05/26 03:44:06;;;;;;;35.23;8.00;;;9.40;99.90;;;;;;4952032;28;20227;-59
2023/05/26 03:46:34;;;;;;;27.90;6.97;;;9.40;99.90;;;;;;4963057;28;20223;-59
2023/05/26 03:49:03;;;;;;;36.07;7.57;;;9.40;99.90;;;;;;4955695;28;20236;-59
2023/05/26 03:51:31;;;;;;;27.90;7.57;;;9.40;99.90;;;;;;4958597;28;20215;-58
2023/05/26 03:53:59;;;;;;;23.53;6.90;;;9.30;99.90;;;;;;4963778;28;20588;-59
2023/05/26 03:56:28;;;;;;;41.60;8.20;;;9.30;99.90;;;;;;4959895;28;20659;-58
2023/05/26 03:58:58;;;;;;;27.40;7.30;;;9.30;99.90;;;;;;4957022;28;20256;-58
2023/05/26 04:01:26;;;;;;;32.63;7.33;;;9.40;99.90;;;;;;4956836;28;20224;-59
2023/05/26 04:03:55;;;;;;;31.97;7.07;;;9.40;99.90;;;;;;4955645;28;20260;-59
2023/05/26 04:06:23;;;;;;;24.87;7.03;;;9.30;99.90;;;;;;4961191;28;20210;-60
2023/05/26 04:08:51;;;;;;;34.40;7.13;;;9.30;99.90;;;;;;4956447;28;20224;-59
2023/05/26 04:11:21;;;;;;;34.57;7.73;;;9.30;99.90;;;;;;4956851;28;20224;-59
2023/05/26 04:13:49;;;;;;;21.17;6.23;;;9.30;99.90;;;;;;4956477;28;20228;-59
2023/05/26 04:16:19;;;;;;;33.13;8.07;;;9.30;99.90;;;;;;4955235;28;20235;-59
2023/05/26 04:18:47;;;;;;;32.37;6.70;;;9.40;99.90;;;;;;4957006;28;20255;-59
2023/05/26 04:21:15;;;;;;;28.73;6.83;;;9.40;99.90;;;;;;4965934;28;20688;-59
2023/05/26 04:23:47;;;;;;;32.87;6.67;;;9.40;99.90;;;;;;4968962;28;20224;-59
2023/05/26 04:26:17;;;;;;;35.30;6.23;;;9.40;99.90;;;;;;4956807;28;20227;-60
2023/05/26 04:28:45;;;;;;;29.30;6.97;;;9.40;99.90;;;;;;4956667;28;20579;-59
2023/05/26 04:31:16;;;;;;;27.47;6.83;;;9.50;99.90;;;;;;4951674;28;20702;-58
2023/05/26 04:33:46;;;;;;;26.07;6.47;;;9.50;99.90;;;;;;4956598;28;20242;-59
2023/05/26 04:36:16;;;;;;;29.13;6.80;;;9.50;99.90;;;;;;4956905;28;20749;-59
2023/05/26 04:38:47;;;;;;;27.13;5.90;;;9.50;99.90;;;;;;4956819;28;20235;-59
2023/05/26 04:41:16;;;;;;;32.07;6.40;;;9.50;99.90;;;;;;4956545;28;20227;-59
2023/05/26 04:43:44;;;;;;;27.83;6.37;;;9.50;99.90;;;;;;4963279;28;20314;-59
2023/05/26 04:46:13;;;;;;;39.23;6.83;;;9.60;99.90;;;;;;4957832;28;20232;-59
2023/05/26 04:48:41;;;;;;;38.13;7.43;;;9.70;99.90;;;;;;4959841;28;20234;-58
2023/05/26 04:51:11;;;;;;;25.27;5.80;;;9.70;99.90;;;;;;4956950;28;20216;-58
2023/05/26 04:53:39;;;;;;;31.23;6.87;;;9.70;99.90;;;;;;4956226;28;20223;-59
2023/05/26 04:56:08;;;;;;;30.87;6.73;;;9.80;99.90;;;;;;4953999;28;20234;-60
2023/05/26 04:58:37;;;;;;;34.37;6.53;;;9.90;99.90;;;;;;4956216;28;20228;-60
2023/05/26 05:01:05;;;;;;;35.17;6.57;;;9.90;99.90;;;;;;4956021;28;20220;-59
2023/05/26 05:03:36;;;;;;;29.77;6.37;;;9.90;99.90;;;;;;4956340;28;20239;-63
2023/05/26 05:06:05;;;;;;;29.07;7.40;;;10.00;99.90;;;;;;4956603;28;20192;-61
2023/05/26 05:08:35;;;;;;;26.87;6.33;;;10.00;99.90;;;;;;4966840;28;20246;-60
2023/05/26 05:11:03;;;;;;;29.77;5.80;;;10.00;99.90;;;;;;4958548;28;20231;-59
2023/05/26 05:13:32;;;;;;;29.17;6.30;;;10.10;99.90;;;;;;4955564;28;20220;-59
2023/05/26 05:16:01;;;;;;;34.70;6.30;;;10.20;99.90;;;;;;4953508;28;20612;-59
2023/05/26 05:18:29;;;;;;;27.67;7.37;;;10.20;99.90;;;;;;4955751;28;20232;-59
2023/05/26 05:20:58;;;;;;;28.70;6.20;;;10.30;99.90;;;;;;4956352;28;20275;-60
2023/05/26 05:23:26;;;;;;;32.27;6.40;;;10.30;99.90;;;;;;4955245;28;20596;-59
2023/05/26 05:25:56;;;;;;;28.70;6.23;;;10.40;99.90;;;;;;4950764;28;20234;-59
2023/05/26 05:28:27;;;;;;;31.17;6.33;;;10.50;99.90;;;;;;4946446;28;20236;-61
2023/05/26 05:30:55;;;;;;;27.87;5.63;;;10.50;99.90;;;;;;4955163;28;20582;-61
2023/05/26 05:33:24;;;;;;;27.17;5.80;;;10.50;99.90;;;;;;4963977;28;20219;-62
2023/05/26 05:35:52;;;;;;;30.10;6.17;;;10.60;99.90;;;;;;4954962;28;20240;-59
2023/05/26 05:38:21;;;;;;;27.77;5.83;;;10.60;99.90;;;;;;4955276;28;20287;-62
2023/05/26 05:40:49;;;;;;;26.53;6.00;;;10.80;99.90;;;;;;4953251;28;20230;-62
2023/05/26 05:43:19;;;;;;;32.83;6.87;;;10.90;99.90;;;;;;4957243;28;20591;-59
2023/05/26 05:45:48;;;;;;;27.00;5.70;;;11.00;99.90;;;;;;4953600;28;20227;-59
2023/05/26 05:48:16;;;;;;;28.47;6.50;;;11.10;99.90;;;;;;4954894;28;20196;-59
2023/05/26 05:50:45;;;;;;;27.80;5.87;;;11.00;99.90;;;;;;4954957;28;20275;-60
2023/05/26 05:53:13;;;;;;;35.73;6.77;;;11.10;99.90;;;;;;4950958;28;20609;-60
2023/05/26 05:55:41;;;;;;;31.20;6.83;;;11.20;99.90;;;;;;4953744;28;20230;-60
2023/05/26 05:58:10;;;;;;;30.90;6.13;;;11.20;99.90;;;;;;4943149;28;20233;-60
2023/05/26 06:00:40;;;;;;;33.20;5.90;;;11.20;99.90;;;;;;4953341;28;20196;-60
2023/05/26 06:03:08;;;;;;;24.73;6.23;;;11.30;99.90;;;;;;4958899;28;20196;-60
2023/05/26 06:05:36;;;;;;;26.37;5.63;;;11.40;99.90;;;;;;4953554;28;20231;-59
2023/05/26 06:08:05;;;;;;;34.03;6.63;;;11.40;99.90;;;;;;4962324;28;20228;-60
2023/05/26 06:10:33;;;;;;;26.97;6.17;;;11.50;99.90;;;;;;4946236;28;20229;-60
2023/05/26 06:13:01;;;;;;;34.30;6.07;;;11.60;99.90;;;;;;4957528;28;20235;-60
2023/05/26 06:15:30;;;;;;;29.70;5.80;;;11.70;99.90;;;;;;4955770;28;20196;-60
2023/05/26 06:17:59;;;;;;;33.87;6.00;;;11.80;99.90;;;;;;4971411;28;20191;-59
2023/05/26 06:20:28;;;;;;;39.73;6.13;;;11.80;99.90;;;;;;4958262;28;20718;-59
2023/05/26 06:22:57;;;;;;;26.13;6.07;;;11.90;99.90;;;;;;4954420;28;20267;-59
2023/05/26 06:25:25;;;;;;;34.73;6.63;;;12.00;99.90;;;;;;4953415;28;20402;-60
2023/05/26 06:27:54;;;;;;;25.80;6.13;;;12.10;99.90;;;;;;4956174;28;20232;-59
2023/05/26 06:30:23;;;;;;;31.40;6.10;;;12.20;99.90;;;;;;4956658;28;20199;-60
2023/05/26 06:32:51;;;;;;;28.03;5.53;;;12.40;99.90;;;;;;4933220;29;20796;-59
2023/05/26 06:35:21;;;;;;;27.17;6.00;;;12.60;99.90;;;;;;4952124;28;20231;-60
2023/05/26 06:38:26;;;;;;;37.20;7.13;;;12.70;99.90;;;;;;4938656;28;20232;-59
2023/05/26 06:40:55;;;;;;;23.33;5.47;;;12.70;99.90;;;;;;4950804;28;20227;-59
2023/05/26 06:43:23;;;;;;;31.90;5.77;;;12.70;99.90;;;;;;4953417;28;20265;-60
2023/05/26 06:49:32;;;;;;;32.13;6.07;;;12.70;99.90;;;;;;4954331;28;20219;-59
2023/05/26 06:52:02;;;;;;;28.97;6.20;;;12.80;99.90;;;;;;4954978;28;20232;-59
2023/05/26 06:54:30;;;;;;;30.23;6.23;;;12.90;99.90;;;;;;4954286;28;20690;-58
2023/05/26 06:57:21;;;;;;;27.60;5.57;;;13.10;99.90;;;;;;4954571;28;20647;-60
2023/05/26 07:03:34;;;;;;;36.30;6.00;;;13.40;99.90;;;;;;4946405;29;20211;-60
2023/05/26 07:09:28;;;;;;;23.30;5.50;;;13.70;99.90;;;;;;4970550;28;20224;-59
2023/05/26 07:11:57;;;;;;;26.13;5.93;;;13.70;99.90;;;;;;4955021;28;20600;-60
2023/05/26 07:14:25;;;;;;;24.73;6.00;;;13.60;99.90;;;;;;4954217;28;20226;-59
2023/05/26 07:16:55;;;;;;;26.73;5.60;;;13.60;99.90;;;;;;4953248;28;20220;-60
2023/05/26 07:19:24;;;;;;;28.63;5.70;;;13.60;99.90;;;;;;4955491;28;20216;-60
2023/05/26 07:21:52;;;;;;;21.87;5.20;;;13.60;99.90;;;;;;4958314;28;20266;-60
2023/05/26 07:24:21;;;;;;;32.60;6.43;;;13.80;99.90;;;;;;4966869;28;20189;-60
2023/05/26 07:26:51;;;;;;;27.20;5.77;;;14.00;99.90;;;;;;4957623;28;20693;-59
2023/05/26 07:29:19;;;;;;;28.00;6.07;;;14.20;99.90;;;;;;4956986;28;20769;-59
2023/05/26 07:31:48;;;;;;;27.17;5.07;;;14.20;99.90;;;;;;4957766;28;20243;-60
2023/05/26 07:34:37;;;;;;;29.67;6.67;;;14.20;99.90;;;;;;4957290;28;20220;-59
2023/05/26 07:37:05;;;;;;;35.60;5.77;;;14.40;99.90;;;;;;4951070;28;20256;-60
2023/05/26 07:39:36;;;;;;;24.67;5.80;;;14.50;99.90;;;;;;4947530;28;20235;-60
2023/05/26 07:42:25;;;;;;;37.40;6.67;;;14.50;99.90;;;;;;4953087;28;20550;-60
2023/05/26 07:45:12;;;;;;;24.73;5.37;;;14.60;99.90;;;;;;4942843;29;20218;-59
2023/05/26 07:47:41;;;;;;;24.83;5.50;;;14.60;99.90;;;;;;4951373;29;20381;-61
2023/05/26 07:50:10;;;;;;;20.70;5.33;;;14.70;99.90;;;;;;4957664;28;20232;-59
2023/05/26 07:52:38;;;;;;;24.33;5.50;;;14.90;99.90;;;;;;4968212;28;20691;-59
2023/05/26 07:58:32;;;;;;;21.60;5.90;;;15.20;99.90;;;;;;4955196;28;20220;-60
2023/05/26 08:01:20;;;;;;;23.07;5.40;;;15.20;99.90;;;;;;4956131;28;20232;-59
2023/05/26 08:03:52;;;;;;;27.83;5.63;;;15.40;99.90;;;;;;4956506;28;20311;-61
2023/05/26 08:06:41;;;;;;;20.80;5.63;;;15.50;99.90;;;;;;4957552;28;20221;-60
2023/05/26 08:09:11;;;;;;;23.53;5.43;;;15.60;99.90;;;;;;4955485;28;20227;-61
2023/05/26 08:11:40;;;;;;;18.60;5.30;;;15.80;99.90;;;;;;4955664;28;20233;-60
2023/05/26 08:14:10;;;;;;;18.50;4.83;;;16.00;99.90;;;;;;4953384;28;20239;-60
2023/05/26 08:16:39;;;;;;;25.13;5.63;;;16.30;99.90;;;;;;4953916;28;20716;-61
2023/05/26 08:19:08;;;;;;;23.47;5.40;;;16.60;99.90;;;;;;4944360;28;20232;-61
2023/05/26 08:21:36;;;;;;;22.93;5.50;;;16.80;99.90;;;;;;4947984;28;20189;-60
2023/05/26 08:24:06;;;;;;;24.20;5.10;;;16.90;99.90;;;;;;4956855;29;20196;-61
2023/05/26 08:26:34;;;;;;;20.47;5.27;;;17.10;99.90;;;;;;4949448;28;20227;-61
2023/05/26 08:29:02;;;;;;;26.13;6.00;;;17.30;99.90;;;;;;4950683;28;20215;-60
2023/05/26 08:31:33;;;;;;;22.57;5.87;;;17.40;99.90;;;;;;4954022;28;20249;-62
2023/05/26 08:34:02;;;;;;;24.50;5.63;;;17.40;99.90;;;;;;4945356;28;20228;-60
2023/05/26 08:36:30;;;;;;;20.87;5.77;;;17.30;99.90;;;;;;4955226;28;20224;-60
2023/05/26 08:38:59;;;;;;;19.20;5.60;;;17.40;99.90;;;;;;4967910;28;20203;-60
2023/05/26 08:45:03;;;;;;;20.97;4.93;;;17.60;99.90;;;;;;4957311;28;20243;-60
2023/05/26 08:47:36;;;;;;;16.17;4.97;;;17.70;99.90;;;;;;4956079;28;20220;-61
2023/05/26 08:50:06;;;;;;;17.37;5.13;;;18.00;99.90;;;;;;4955112;28;20263;-62
2023/05/26 08:52:34;;;;;;;15.40;5.47;;;18.20;99.90;;;;;;4955715;28;20220;-61
2023/05/26 08:55:02;;;;;;;22.57;6.03;;;18.00;99.90;;;;;;4954628;28;20244;-60
2023/05/26 08:57:31;;;;;;;19.70;5.60;;;18.20;99.90;;;;;;4954846;28;20203;-60
2023/05/26 08:59:59;;;;;;;18.57;5.07;;;18.50;99.90;;;;;;4957081;28;20337;-61
2023/05/26 09:02:28;;;;;;;19.67;5.03;;;18.70;99.90;;;;;;4954590;28;20228;-61
2023/05/26 09:04:59;;;;;;;17.37;5.07;;;18.90;99.90;;;;;;4945389;28;20581;-61
2023/05/26 09:07:27;;;;;;;14.67;5.20;;;19.10;99.90;;;;;;4954463;28;20231;-61
2023/05/26 09:10:03;;;;;;;22.77;5.90;;;19.10;99.90;;;;;;4951318;28;20319;-60
2023/05/26 09:12:41;;;;;;;20.77;5.50;;;19.50;99.90;;;;;;4955396;28;20519;-61
2023/05/26 09:15:10;;;;;;;18.87;5.20;;;19.60;99.90;;;;;;4953880;28;20222;-61
2023/05/26 09:17:38;;;;;;;22.17;5.30;;;19.90;99.90;;;;;;4953964;28;20233;-61
2023/05/26 09:20:09;;;;;;;18.33;5.57;;;20.20;99.90;;;;;;4964052;28;20239;-61
2023/05/26 09:22:39;;;;;;;15.67;4.97;;;20.40;99.90;;;;;;4960454;28;20219;-61
2023/05/26 09:25:09;;;;;;;21.50;5.20;;;20.80;99.90;;;;;;4955460;28;20558;-61
2023/05/26 09:27:38;;;;;;;22.63;5.60;;;21.10;99.90;;;;;;4953211;28;20559;-61
2023/05/26 09:30:07;;;;;;;19.60;5.43;;;21.10;99.90;;;;;;4943892;28;20192;-60
2023/05/26 09:32:37;;;;;;;15.90;5.00;;;21.30;99.90;;;;;;4948350;28;20220;-62
2023/05/26 09:35:08;;;;;;;17.03;5.73;;;21.40;99.90;;;;;;4953768;28;20224;-61
2023/05/26 09:37:37;;;;;;;16.83;4.43;;;21.20;99.90;;;;;;4954451;28;20548;-61
2023/05/26 09:40:09;;;;;;;15.10;5.23;;;21.30;99.90;;;;;;4953212;28;20250;-61
2023/05/26 09:42:38;;;;;;;14.67;5.00;;;21.40;99.90;;;;;;4956871;28;20199;-61
2023/05/26 09:45:07;;;;;;;18.80;5.17;;;21.60;99.90;;;;;;4952858;28;20667;-61
2023/05/26 09:47:36;;;;;;;14.03;4.80;;;21.60;99.90;;;;;;4954629;28;20240;-61
2023/05/26 09:50:05;;;;;;;18.23;5.73;;;21.90;99.90;;;;;;4950752;28;20236;-61
2023/05/26 09:52:36;;;;;;;16.25;5.22;;;22.30;99.90;;;;;;4944990;28;20728;-61
2023/05/26 09:55:05;;;;;;;16.20;4.50;;;22.80;99.90;;;;;;4957033;28;20267;-62
2023/05/26 09:57:36;;;;;;;14.40;4.53;;;22.90;99.90;;;;;;4953042;28;20198;-60
2023/05/26 10:00:09;;;;;;;20.60;4.78;;;23.00;99.90;;;;;;4951421;29;20198;-61
2023/05/26 10:02:40;;;;;;;17.58;4.80;;;22.90;99.90;;;;;;4951171;28;20216;-61
2023/05/26 10:05:08;;;;;;;16.42;5.15;;;23.00;99.90;;;;;;4946758;28;20583;-61
2023/05/26 10:07:40;;;;;;;13.13;4.97;;;23.20;99.90;;;;;;4953331;28;20228;-60
2023/05/26 10:10:13;;;;;;;17.07;5.30;;;22.60;99.90;;;;;;4951081;28;20235;-60
2023/05/26 10:12:43;;;;;;;13.63;5.13;;;22.40;99.90;;;;;;4963518;28;20287;-60
2023/05/26 10:15:12;;;;;;;14.70;4.87;;;22.70;99.90;;;;;;4952824;28;20627;-61
2023/05/26 10:17:40;;;;;;;16.63;4.87;;;22.90;99.90;;;;;;4947597;28;20231;-60
2023/05/26 10:20:09;;;;;;;17.47;5.00;;;23.20;99.90;;;;;;4951236;28;20236;-60
2023/05/26 10:22:47;;;;;;;14.48;4.75;;;23.30;99.90;;;;;;4954230;28;20259;-62
2023/05/26 10:25:21;;;;;;;17.10;5.00;;;23.30;99.90;;;;;;4957245;28;20587;-60
2023/05/26 10:27:57;;;;;;;16.63;4.88;;;22.80;99.90;;;;;;4953226;28;20250;-60
2023/05/26 10:30:27;;;;;;;15.65;4.72;;;23.10;99.90;;;;;;4951920;28;20198;-60
2023/05/26 10:32:57;;;;;;;17.00;5.07;;;23.20;99.90;;;;;;4947924;28;20288;-62
2023/05/26 10:35:30;;;;;;;18.38;5.28;;;23.10;99.90;;;;;;4954830;28;21858;-61
2023/05/26 10:38:13;;;;;;;13.93;5.07;;;23.30;99.90;;;;;;4953459;28;20299;-61
2023/05/26 10:40:45;;;;;;;14.83;5.00;;;23.30;99.90;;;;;;4955591;28;20299;-60
2023/05/26 10:43:18;;;;;;;14.33;4.70;;;23.40;99.90;;;;;;4950097;28;20279;-61
2023/05/26 10:45:51;;;;;;;16.13;4.90;;;23.20;99.90;;;;;;4953516;28;20230;-61
2023/05/26 10:48:20;;;;;;;11.90;4.30;;;23.10;99.90;;;;;;4952823;28;20204;-60
2023/05/26 10:51:09;;;;;;;16.53;5.03;;;23.10;99.90;;;;;;4953663;28;20220;-60
2023/05/26 10:53:42;;;;;;;13.57;4.70;;;23.20;99.90;;;;;;4948788;28;20224;-60
2023/05/26 10:56:12;;;;;;;11.33;4.80;;;22.90;99.90;;;;;;4952404;28;20228;-61
2023/05/26 10:58:46;;;;;;;19.30;4.43;;;22.80;99.90;;;;;;4950325;28;20224;-60
2023/05/26 11:01:16;;;;;;;13.10;4.60;;;22.60;99.90;;;;;;4955930;28;20231;-60
2023/05/26 11:03:47;;;;;;;14.00;4.50;;;22.50;99.90;;;;;;4954767;28;20265;-60
2023/05/26 11:06:16;;;;;;;13.70;4.50;;;22.70;99.90;;;;;;4951942;28;20262;-60
2023/05/26 11:08:48;;;;;;;19.17;4.60;;;22.70;99.90;;;;;;4950029;28;20227;-60
2023/05/26 11:11:27;;;;;;;15.73;4.73;;;22.70;99.90;;;;;;4947102;28;20247;-61
2023/05/26 11:14:03;;;;;;;14.00;4.80;;;22.40;99.90;;;;;;4954256;28;20270;-61
2023/05/26 11:16:36;;;;;;;12.53;4.77;;;22.10;99.90;;;;;;4952357;28;20261;-60
2023/05/26 11:19:07;;;;;;;13.93;4.33;;;22.00;99.90;;;;;;4953349;28;20732;-60
2023/05/26 11:21:37;;;;;;;15.43;4.63;;;22.20;99.90;;;;;;4953492;28;20198;-59
2023/05/26 11:24:08;;;;;;;13.77;4.00;;;22.10;99.90;;;;;;4950707;29;20286;-61
2023/05/26 11:26:37;;;;;;;13.97;4.67;;;22.00;99.90;;;;;;4952343;28;20223;-60
2023/05/26 11:29:06;;;;;;;14.37;4.07;;;21.90;99.90;;;;;;4953622;28;20225;-60
2023/05/26 11:31:36;;;;;;;13.30;4.53;;;22.20;99.90;;;;;;4952558;28;20216;-60
2023/05/26 11:34:05;;;;;;;11.60;4.70;;;21.80;99.90;;;;;;4956848;28;20237;-60
2023/05/26 11:36:35;;;;;;;17.77;4.70;;;22.10;99.90;;;;;;4951225;28;20274;-60
2023/05/26 11:39:04;;;;;;;10.80;4.23;;;22.10;99.90;;;;;;4959831;28;20209;-60
2023/05/26 11:41:33;;;;;;;17.93;5.13;;;22.10;99.90;;;;;;4948034;28;20352;-61
2023/05/26 11:44:08;;;;;;;10.37;4.20;;;22.30;99.90;;;;;;4960253;28;20237;-60
2023/05/26 11:46:39;;;;;;;11.57;4.40;;;22.40;99.90;;;;;;4953998;28;20668;-59
2023/05/26 11:49:13;;;;;;;13.57;4.53;;;22.30;99.90;;;;;;4953120;28;20251;-59
2023/05/26 11:51:47;;;;;;;12.97;4.60;;;22.30;99.90;;;;;;4953549;28;20217;-60
2023/05/26 11:54:16;;;;;;;8.20;3.87;;;22.00;99.90;;;;;;4951703;28;20205;-60
2023/05/26 11:56:46;;;;;;;14.73;4.80;;;21.90;99.60;;;;;;4953008;28;20220;-61
2023/05/26 11:59:18;;;;;;;12.87;3.80;;;21.70;99.90;;;;;;4956958;28;20679;-60
2023/05/26 12:01:47;;;;;;;16.57;4.43;;;21.70;99.90;;;;;;4947068;28;20220;-60
2023/05/26 12:04:27;;;;;;;16.20;4.83;;;22.00;99.90;;;;;;4952754;28;20317;-60
2023/05/26 12:06:56;;;;;;;13.27;4.33;;;22.30;99.90;;;;;;4959294;28;20302;-60
2023/05/26 12:09:43;;;;;;;16.13;4.30;;;22.10;99.90;;;;;;4960302;28;20197;-60
2023/05/26 12:12:15;;;;;;;11.83;4.07;;;22.10;99.90;;;;;;4957622;28;20312;-60
2023/05/26 12:14:45;;;;;;;14.57;4.20;;;21.80;99.90;;;;;;4962722;28;20295;-60
2023/05/26 12:17:14;;;;;;;12.73;4.10;;;21.70;99.90;;;;;;4955960;28;20244;-59
2023/05/26 12:19:44;;;;;;;17.27;4.10;;;21.90;99.90;;;;;;4957075;28;20255;-60
2023/05/26 12:22:13;;;;;;;19.97;4.70;;;21.70;99.90;;;;;;4937936;28;20291;-60
2023/05/26 12:24:41;;;;;;;15.77;3.97;;;21.90;99.90;;;;;;4948901;28;20194;-60
2023/05/26 12:27:10;;;;;;;14.67;4.10;;;21.60;99.60;;;;;;4953523;29;20296;-60
2023/05/26 12:30:17;;;;;;;14.33;3.87;;;21.10;99.90;;;;;;4956300;28;20224;-59
2023/05/26 12:33:08;;;;;;;11.53;3.43;;;21.20;99.90;;;;;;4952249;28;20258;-60
2023/05/26 12:35:37;;;;;;;15.63;3.87;;;21.20;99.90;;;;;;4951453;28;20695;-60
2023/05/26 12:38:05;;;;;;;16.27;4.13;;;21.30;99.90;;;;;;4952590;28;20235;-60
2023/05/26 12:40:34;;;;;;;13.90;3.93;;;21.50;99.90;;;;;;4953864;28;20223;-59
2023/05/26 12:43:02;;;;;;;13.47;4.27;;;21.70;99.90;;;;;;4954098;28;20705;-60
2023/05/26 12:45:32;;;;;;;14.37;3.73;;;21.60;98.80;;;;;;4954596;28;20211;-58
2023/05/26 12:48:01;;;;;;;18.13;4.33;;;21.20;99.90;;;;;;4955623;28;20211;-61
2023/05/26 12:50:32;;;;;;;10.93;4.10;;;21.10;99.90;;;;;;4941513;28;20676;-61
2023/05/26 12:53:00;;;;;;;14.40;3.80;;;21.50;99.90;;;;;;4949128;28;20872;-62
2023/05/26 12:55:29;;;;;;;10.83;3.87;;;21.50;99.90;;;;;;4952813;28;20590;-61
2023/05/26 12:57:57;;;;;;;17.00;4.10;;;21.70;99.90;;;;;;4950204;28;20235;-61
2023/05/26 13:00:25;;;;;;;16.50;4.43;;;22.00;99.90;;;;;;4945638;28;20571;-60
2023/05/26 13:02:56;;;;;;;13.50;4.20;;;21.70;99.80;;;;;;4949731;28;20219;-61
2023/05/26 13:05:25;;;;;;;15.90;4.13;;;21.70;99.90;;;;;;4949268;28;20346;-61
2023/05/26 13:07:55;;;;;;;16.53;4.30;;;22.00;99.90;;;;;;4954097;28;20222;-61
2023/05/26 13:10:26;;;;;;;13.03;4.13;;;22.10;99.90;;;;;;4950683;28;20307;-61
2023/05/26 13:12:54;;;;;;;11.60;4.10;;;21.80;99.90;;;;;;4956080;28;20270;-61